sensor_id;sensor_type;location;lat;lon;timestamp;temperature;humidity
15105;DHT22;7653;48.994;9.212;2023-02-25T00:00:11;5.60;51.70
15105;DHT22;7653;48.994;9.212;2023-02-25T00:02:44;5.60;50.30
15105;DHT22;7653;48.994;9.212;2023-02-25T00:05:10;5.70;50.40
15105;DHT22;7653;48.994;9.212;2023-02-25T00:07:37;5.60;50.00
15105;DHT22;7653;48.994;9.212;2023-02-25T00:10:03;5.70;49.30
15105;DHT22;7653;48.994;9.212;2023-02-25T00:12:29;5.70;47.80
15105;DHT22;7653;48.994;9.212;2023-02-25T00:14:55;5.70;48.50
15105;DHT22;7653;48.994;9.212;2023-02-25T00:17:20;5.70;48.30
15105;DHT22;7653;48.994;9.212;2023-02-25T00:19:46;5.70;48.80
15105;DHT22;7653;48.994;9.212;2023-02-25T00:22:12;5.60;48.30
15105;DHT22;7653;48.994;9.212;2023-02-25T00:24:38;5.70;48.60
15105;DHT22;7653;48.994;9.212;2023-02-25T00:27:04;5.70;49.00
15105;DHT22;7653;48.994;9.212;2023-02-25T00:29:30;5.70;49.00
15105;DHT22;7653;48.994;9.212;2023-02-25T00:31:55;5.70;47.80
15105;DHT22;7653;48.994;9.212;2023-02-25T00:34:21;5.70;47.80
15105;DHT22;7653;48.994;9.212;2023-02-25T00:36:47;5.70;47.60
15105;DHT22;7653;48.994;9.212;2023-02-25T00:39:14;5.70;47.80
15105;DHT22;7653;48.994;9.212;2023-02-25T00:41:40;5.60;47.90
15105;DHT22;7653;48.994;9.212;2023-02-25T00:44:06;5.50;47.60
15105;DHT22;7653;48.994;9.212;2023-02-25T00:46:32;5.50;49.30
15105;DHT22;7653;48.994;9.212;2023-02-25T00:48:58;5.40;49.80
15105;DHT22;7653;48.994;9.212;2023-02-25T00:51:30;5.40;51.10
15105;DHT22;7653;48.994;9.212;2023-02-25T00:53:57;5.30;52.20
15105;DHT22;7653;48.994;9.212;2023-02-25T00:56:24;5.30;55.60
15105;DHT22;7653;48.994;9.212;2023-02-25T00:58:51;5.20;54.40
15105;DHT22;7653;48.994;9.212;2023-02-25T01:01:27;5.20;55.70
15105;DHT22;7653;48.994;9.212;2023-02-25T01:03:55;5.20;56.80
15105;DHT22;7653;48.994;9.212;2023-02-25T01:06:21;5.10;54.70
15105;DHT22;7653;48.994;9.212;2023-02-25T01:08:47;5.10;56.70
15105;DHT22;7653;48.994;9.212;2023-02-25T01:11:17;5.20;56.80
15105;DHT22;7653;48.994;9.212;2023-02-25T01:13:49;5.20;56.70
15105;DHT22;7653;48.994;9.212;2023-02-25T01:16:17;5.20;56.10
15105;DHT22;7653;48.994;9.212;2023-02-25T01:18:43;5.20;56.80
15105;DHT22;7653;48.994;9.212;2023-02-25T01:21:19;5.20;56.80
15105;DHT22;7653;48.994;9.212;2023-02-25T01:23:46;5.20;56.10
15105;DHT22;7653;48.994;9.212;2023-02-25T01:26:12;5.20;55.90
15105;DHT22;7653;48.994;9.212;2023-02-25T01:28:38;5.20;55.80
15105;DHT22;7653;48.994;9.212;2023-02-25T01:31:04;5.20;54.40
15105;DHT22;7653;48.994;9.212;2023-02-25T01:33:33;5.20;53.60
15105;DHT22;7653;48.994;9.212;2023-02-25T01:36:04;5.20;51.90
15105;DHT22;7653;48.994;9.212;2023-02-25T01:38:30;5.20;51.40
15105;DHT22;7653;48.994;9.212;2023-02-25T01:40:57;5.30;49.70
15105;DHT22;7653;48.994;9.212;2023-02-25T01:43:23;5.30;49.50
15105;DHT22;7653;48.994;9.212;2023-02-25T01:45:49;5.30;49.00
15105;DHT22;7653;48.994;9.212;2023-02-25T01:48:18;5.30;47.80
15105;DHT22;7653;48.994;9.212;2023-02-25T01:50:48;5.30;47.60
15105;DHT22;7653;48.994;9.212;2023-02-25T01:53:18;5.30;49.30
15105;DHT22;7653;48.994;9.212;2023-02-25T01:55:46;5.40;48.70
15105;DHT22;7653;48.994;9.212;2023-02-25T01:58:13;5.30;47.40
15105;DHT22;7653;48.994;9.212;2023-02-25T02:00:39;5.30;49.70
15105;DHT22;7653;48.994;9.212;2023-02-25T02:03:06;5.30;48.50
15105;DHT22;7653;48.994;9.212;2023-02-25T02:05:47;5.30;47.40
15105;DHT22;7653;48.994;9.212;2023-02-25T02:08:15;5.20;47.30
15105;DHT22;7653;48.994;9.212;2023-02-25T02:10:41;5.10;46.30
15105;DHT22;7653;48.994;9.212;2023-02-25T02:13:06;5.00;47.20
15105;DHT22;7653;48.994;9.212;2023-02-25T02:15:37;5.10;47.20
15105;DHT22;7653;48.994;9.212;2023-02-25T02:18:05;5.00;45.70
15105;DHT22;7653;48.994;9.212;2023-02-25T02:31:48;4.80;45.90
15105;DHT22;7653;48.994;9.212;2023-02-25T02:34:36;4.80;44.70
15105;DHT22;7653;48.994;9.212;2023-02-25T02:42:41;4.70;46.10
15105;DHT22;7653;48.994;9.212;2023-02-25T02:45:20;4.70;47.00
15105;DHT22;7653;48.994;9.212;2023-02-25T02:48:01;4.70;46.90
15105;DHT22;7653;48.994;9.212;2023-02-25T02:52:58;4.70;47.00
15105;DHT22;7653;48.994;9.212;2023-02-25T02:55:33;4.70;46.90
15105;DHT22;7653;48.994;9.212;2023-02-25T02:58:05;4.70;46.90
15105;DHT22;7653;48.994;9.212;2023-02-25T03:00:37;4.70;46.90
15105;DHT22;7653;48.994;9.212;2023-02-25T03:03:11;4.70;47.60
15105;DHT22;7653;48.994;9.212;2023-02-25T03:05:40;4.70;47.00
15105;DHT22;7653;48.994;9.212;2023-02-25T03:08:14;4.60;47.10
15105;DHT22;7653;48.994;9.212;2023-02-25T03:10:41;4.60;46.90
15105;DHT22;7653;48.994;9.212;2023-02-25T03:13:07;4.60;48.20
15105;DHT22;7653;48.994;9.212;2023-02-25T03:15:33;4.60;47.90
15105;DHT22;7653;48.994;9.212;2023-02-25T03:18:05;4.60;48.50
15105;DHT22;7653;48.994;9.212;2023-02-25T03:20:40;4.60;48.90
15105;DHT22;7653;48.994;9.212;2023-02-25T03:23:09;4.60;49.00
15105;DHT22;7653;48.994;9.212;2023-02-25T03:25:43;4.50;49.40
15105;DHT22;7653;48.994;9.212;2023-02-25T03:33:54;4.50;50.60
15105;DHT22;7653;48.994;9.212;2023-02-25T03:36:27;4.50;51.10
15105;DHT22;7653;48.994;9.212;2023-02-25T03:39:09;4.40;51.50
15105;DHT22;7653;48.994;9.212;2023-02-25T03:41:38;4.40;51.50
15105;DHT22;7653;48.994;9.212;2023-02-25T03:44:08;4.30;52.00
15105;DHT22;7653;48.994;9.212;2023-02-25T03:46:37;4.20;52.60
15105;DHT22;7653;48.994;9.212;2023-02-25T03:49:04;4.20;52.70
15105;DHT22;7653;48.994;9.212;2023-02-25T03:51:34;4.20;52.80
15105;DHT22;7653;48.994;9.212;2023-02-25T03:54:00;4.20;52.80
15105;DHT22;7653;48.994;9.212;2023-02-25T03:56:26;4.10;53.50
15105;DHT22;7653;48.994;9.212;2023-02-25T03:58:52;4.20;53.20
15105;DHT22;7653;48.994;9.212;2023-02-25T04:01:26;4.10;53.10
15105;DHT22;7653;48.994;9.212;2023-02-25T04:03:54;4.10;53.40
15105;DHT22;7653;48.994;9.212;2023-02-25T04:06:21;4.10;52.30
15105;DHT22;7653;48.994;9.212;2023-02-25T04:08:47;4.10;51.70
15105;DHT22;7653;48.994;9.212;2023-02-25T04:11:13;4.10;51.00
15105;DHT22;7653;48.994;9.212;2023-02-25T04:13:39;4.10;50.20
15105;DHT22;7653;48.994;9.212;2023-02-25T04:16:05;4.20;50.20
15105;DHT22;7653;48.994;9.212;2023-02-25T04:18:33;4.20;49.30
15105;DHT22;7653;48.994;9.212;2023-02-25T04:20:59;4.20;49.70
15105;DHT22;7653;48.994;9.212;2023-02-25T04:23:24;4.20;49.60
15105;DHT22;7653;48.994;9.212;2023-02-25T04:25:50;4.20;48.70
15105;DHT22;7653;48.994;9.212;2023-02-25T04:28:16;4.20;48.40
15105;DHT22;7653;48.994;9.212;2023-02-25T04:30:41;4.20;47.40
15105;DHT22;7653;48.994;9.212;2023-02-25T04:33:11;4.20;46.50
15105;DHT22;7653;48.994;9.212;2023-02-25T04:35:37;4.20;46.50
15105;DHT22;7653;48.994;9.212;2023-02-25T04:38:03;4.30;46.60
15105;DHT22;7653;48.994;9.212;2023-02-25T04:40:28;4.30;45.70
15105;DHT22;7653;48.994;9.212;2023-02-25T04:42:54;4.30;44.30
15105;DHT22;7653;48.994;9.212;2023-02-25T04:45:20;4.30;44.50
15105;DHT22;7653;48.994;9.212;2023-02-25T04:47:51;4.40;44.00
15105;DHT22;7653;48.994;9.212;2023-02-25T04:50:17;4.30;42.60
15105;DHT22;7653;48.994;9.212;2023-02-25T04:52:43;4.30;41.60
15105;DHT22;7653;48.994;9.212;2023-02-25T04:55:09;4.40;41.60
15105;DHT22;7653;48.994;9.212;2023-02-25T04:57:36;4.40;41.60
15105;DHT22;7653;48.994;9.212;2023-02-25T05:00:12;4.40;41.10
15105;DHT22;7653;48.994;9.212;2023-02-25T05:02:39;4.50;40.30
15105;DHT22;7653;48.994;9.212;2023-02-25T05:05:05;4.40;38.50
15105;DHT22;7653;48.994;9.212;2023-02-25T05:07:31;4.50;37.00
15105;DHT22;7653;48.994;9.212;2023-02-25T05:09:56;4.50;37.00
15105;DHT22;7653;48.994;9.212;2023-02-25T05:12:22;4.50;37.70
15105;DHT22;7653;48.994;9.212;2023-02-25T05:14:48;4.50;37.00
15105;DHT22;7653;48.994;9.212;2023-02-25T05:17:13;4.60;37.10
15105;DHT22;7653;48.994;9.212;2023-02-25T05:19:40;4.50;37.00
15105;DHT22;7653;48.994;9.212;2023-02-25T05:22:05;4.60;37.10
15105;DHT22;7653;48.994;9.212;2023-02-25T05:24:33;4.60;37.00
15105;DHT22;7653;48.994;9.212;2023-02-25T05:26:58;4.50;35.40
15105;DHT22;7653;48.994;9.212;2023-02-25T05:29:33;4.50;34.60
15105;DHT22;7653;48.994;9.212;2023-02-25T05:31:58;4.50;34.10
15105;DHT22;7653;48.994;9.212;2023-02-25T05:34:24;4.50;33.90
15105;DHT22;7653;48.994;9.212;2023-02-25T05:36:50;4.50;33.20
15105;DHT22;7653;48.994;9.212;2023-02-25T05:39:15;4.50;33.70
15105;DHT22;7653;48.994;9.212;2023-02-25T05:41:41;4.50;33.60
15105;DHT22;7653;48.994;9.212;2023-02-25T05:44:13;4.60;34.00
15105;DHT22;7653;48.994;9.212;2023-02-25T05:50:13;4.60;35.40
15105;DHT22;7653;48.994;9.212;2023-02-25T08:00:57;4.70;30.00
15105;DHT22;7653;48.994;9.212;2023-02-25T08:03:23;4.80;30.70
15105;DHT22;7653;48.994;9.212;2023-02-25T08:05:52;4.80;29.90
15105;DHT22;7653;48.994;9.212;2023-02-25T08:08:19;4.80;30.10
15105;DHT22;7653;48.994;9.212;2023-02-25T08:10:46;4.90;30.30
15105;DHT22;7653;48.994;9.212;2023-02-25T08:13:12;4.90;29.70
15105;DHT22;7653;48.994;9.212;2023-02-25T08:15:42;4.90;29.80
15105;DHT22;7653;48.994;9.212;2023-02-25T08:18:08;4.90;29.40
15105;DHT22;7653;48.994;9.212;2023-02-25T08:20:34;5.00;29.30
15105;DHT22;7653;48.994;9.212;2023-02-25T08:23:00;5.00;28.90
15105;DHT22;7653;48.994;9.212;2023-02-25T08:25:26;5.00;28.10
15105;DHT22;7653;48.994;9.212;2023-02-25T08:27:51;5.10;28.00
15105;DHT22;7653;48.994;9.212;2023-02-25T08:30:20;5.00;25.10
15105;DHT22;7653;48.994;9.212;2023-02-25T08:32:46;5.00;25.90
15105;DHT22;7653;48.994;9.212;2023-02-25T08:35:13;5.10;26.90
15105;DHT22;7653;48.994;9.212;2023-02-25T08:37:39;5.20;25.90
15105;DHT22;7653;48.994;9.212;2023-02-25T08:40:07;5.10;24.80
15105;DHT22;7653;48.994;9.212;2023-02-25T08:42:35;5.10;25.40
15105;DHT22;7653;48.994;9.212;2023-02-25T08:45:01;5.10;25.10
15105;DHT22;7653;48.994;9.212;2023-02-25T08:47:26;5.00;25.40
15105;DHT22;7653;48.994;9.212;2023-02-25T08:49:52;5.10;25.40
15105;DHT22;7653;48.994;9.212;2023-02-25T08:52:17;5.10;25.70
15105;DHT22;7653;48.994;9.212;2023-02-25T08:54:43;5.20;25.70
15105;DHT22;7653;48.994;9.212;2023-02-25T08:57:09;5.20;25.00
15105;DHT22;7653;48.994;9.212;2023-02-25T08:59:34;5.20;25.80
15105;DHT22;7653;48.994;9.212;2023-02-25T09:02:09;5.30;26.00
15105;DHT22;7653;48.994;9.212;2023-02-25T09:04:39;5.30;25.70
15105;DHT22;7653;48.994;9.212;2023-02-25T09:07:05;5.40;25.90
15105;DHT22;7653;48.994;9.212;2023-02-25T09:09:31;5.30;25.70
15105;DHT22;7653;48.994;9.212;2023-02-25T09:11:59;5.30;25.60
15105;DHT22;7653;48.994;9.212;2023-02-25T09:14:26;5.30;25.40
15105;DHT22;7653;48.994;9.212;2023-02-25T09:16:51;5.40;25.40
15105;DHT22;7653;48.994;9.212;2023-02-25T09:19:17;5.40;24.90
15105;DHT22;7653;48.994;9.212;2023-02-25T09:21:44;5.40;23.50
15105;DHT22;7653;48.994;9.212;2023-02-25T09:24:13;5.40;23.30
15105;DHT22;7653;48.994;9.212;2023-02-25T09:26:39;5.40;22.40
15105;DHT22;7653;48.994;9.212;2023-02-25T09:29:05;5.40;21.10
15105;DHT22;7653;48.994;9.212;2023-02-25T09:31:32;5.40;22.30
15105;DHT22;7653;48.994;9.212;2023-02-25T09:34:00;5.40;21.20
15105;DHT22;7653;48.994;9.212;2023-02-25T09:36:26;5.40;21.10
15105;DHT22;7653;48.994;9.212;2023-02-25T09:38:51;5.40;20.30
15105;DHT22;7653;48.994;9.212;2023-02-25T09:43:44;5.40;20.30
15105;DHT22;7653;48.994;9.212;2023-02-25T09:46:16;5.40;20.80
15105;DHT22;7653;48.994;9.212;2023-02-25T09:48:57;5.50;20.80
15105;DHT22;7653;48.994;9.212;2023-02-25T09:51:35;5.50;20.40
15105;DHT22;7653;48.994;9.212;2023-02-25T09:56:34;5.60;20.60
15105;DHT22;7653;48.994;9.212;2023-02-25T09:59:12;5.60;20.50
15105;DHT22;7653;48.994;9.212;2023-02-25T10:04:23;5.70;20.50
15105;DHT22;7653;48.994;9.212;2023-02-25T10:06:52;5.60;20.80
15105;DHT22;7653;48.994;9.212;2023-02-25T10:09:33;5.50;20.40
15105;DHT22;7653;48.994;9.212;2023-02-25T10:23:23;5.90;20.70
15105;DHT22;7653;48.994;9.212;2023-02-25T10:26:03;5.90;20.60
15105;DHT22;7653;48.994;9.212;2023-02-25T10:28:33;6.10;20.70
15105;DHT22;7653;48.994;9.212;2023-02-25T10:31:07;6.20;20.60
15105;DHT22;7653;48.994;9.212;2023-02-25T10:33:36;6.20;20.30
15105;DHT22;7653;48.994;9.212;2023-02-25T10:38:27;6.20;20.80
15105;DHT22;7653;48.994;9.212;2023-02-25T10:40:56;6.30;20.90
15105;DHT22;7653;48.994;9.212;2023-02-25T10:43:25;6.40;20.90
15105;DHT22;7653;48.994;9.212;2023-02-25T10:46:39;6.20;20.80
15105;DHT22;7653;48.994;9.212;2023-02-25T10:51:59;5.80;21.30
15105;DHT22;7653;48.994;9.212;2023-02-25T10:54:34;5.90;22.40
15105;DHT22;7653;48.994;9.212;2023-02-25T10:57:13;5.80;23.10
15105;DHT22;7653;48.994;9.212;2023-02-25T10:59:40;5.60;23.90
15105;DHT22;7653;48.994;9.212;2023-02-25T11:02:28;5.60;25.20
15105;DHT22;7653;48.994;9.212;2023-02-25T11:05:28;5.60;25.10
15105;DHT22;7653;48.994;9.212;2023-02-25T11:07:54;5.80;24.60
15105;DHT22;7653;48.994;9.212;2023-02-25T11:10:21;5.70;24.10
15105;DHT22;7653;48.994;9.212;2023-02-25T11:12:55;5.60;23.90
15105;DHT22;7653;48.994;9.212;2023-02-25T11:15:36;5.70;24.20
15105;DHT22;7653;48.994;9.212;2023-02-25T11:18:16;5.60;24.30
15105;DHT22;7653;48.994;9.212;2023-02-25T11:20:56;5.70;24.50
15105;DHT22;7653;48.994;9.212;2023-02-25T11:23:29;5.60;26.60
15105;DHT22;7653;48.994;9.212;2023-02-25T11:25:56;5.60;27.70
15105;DHT22;7653;48.994;9.212;2023-02-25T11:31:15;5.70;27.90
15105;DHT22;7653;48.994;9.212;2023-02-25T11:33:44;5.70;27.40
15105;DHT22;7653;48.994;9.212;2023-02-25T11:36:11;5.90;26.50
15105;DHT22;7653;48.994;9.212;2023-02-25T11:38:41;5.70;26.60
15105;DHT22;7653;48.994;9.212;2023-02-25T11:41:36;5.70;26.90
15105;DHT22;7653;48.994;9.212;2023-02-25T11:47:26;5.60;26.30
15105;DHT22;7653;48.994;9.212;2023-02-25T12:01:41;5.00;34.00
15105;DHT22;7653;48.994;9.212;2023-02-25T12:04:24;4.70;38.20
15105;DHT22;7653;48.994;9.212;2023-02-25T12:35:43;5.20;34.20
15105;DHT22;7653;48.994;9.212;2023-02-25T12:46:19;5.50;31.90
15105;DHT22;7653;48.994;9.212;2023-02-25T12:51:39;5.50;31.20
15105;DHT22;7653;48.994;9.212;2023-02-25T13:00:03;5.60;31.20
15105;DHT22;7653;48.994;9.212;2023-02-25T13:03:53;6.00;29.20
15105;DHT22;7653;48.994;9.212;2023-02-25T13:13:47;5.30;32.00
15105;DHT22;7653;48.994;9.212;2023-02-25T13:25:40;6.30;28.40
15105;DHT22;7653;48.994;9.212;2023-02-25T13:48:10;7.70;20.80
15105;DHT22;7653;48.994;9.212;2023-02-25T14:24:20;6.90;22.90
15105;DHT22;7653;48.994;9.212;2023-02-25T14:27:14;6.60;22.90
15105;DHT22;7653;48.994;9.212;2023-02-25T14:30:25;6.50;22.50
15105;DHT22;7653;48.994;9.212;2023-02-25T14:33:35;6.60;22.60
15105;DHT22;7653;48.994;9.212;2023-02-25T14:39:04;6.80;21.70
15105;DHT22;7653;48.994;9.212;2023-02-25T14:44:28;7.90;19.60
15105;DHT22;7653;48.994;9.212;2023-02-25T14:47:13;8.10;18.40
15105;DHT22;7653;48.994;9.212;2023-02-25T14:49:55;8.70;17.10
15105;DHT22;7653;48.994;9.212;2023-02-25T15:20:35;6.30;24.50
15105;DHT22;7653;48.994;9.212;2023-02-25T15:25:37;4.80;49.50
15105;DHT22;7653;48.994;9.212;2023-02-25T15:33:38;4.00;64.20
15105;DHT22;7653;48.994;9.212;2023-02-25T15:38:44;3.70;64.90
15105;DHT22;7653;48.994;9.212;2023-02-25T15:46:43;3.50;70.10
15105;DHT22;7653;48.994;9.212;2023-02-25T15:51:59;3.90;66.10
15105;DHT22;7653;48.994;9.212;2023-02-25T15:56:55;3.80;62.60
15105;DHT22;7653;48.994;9.212;2023-02-25T16:04:52;4.10;68.30
15105;DHT22;7653;48.994;9.212;2023-02-25T16:07:21;4.30;66.90
15105;DHT22;7653;48.994;9.212;2023-02-25T16:09:56;4.50;68.80
15105;DHT22;7653;48.994;9.212;2023-02-25T16:12:24;4.60;61.00
15105;DHT22;7653;48.994;9.212;2023-02-25T16:14:51;4.50;60.60
15105;DHT22;7653;48.994;9.212;2023-02-25T16:17:22;4.50;67.50
15105;DHT22;7653;48.994;9.212;2023-02-25T16:19:55;4.40;61.90
15105;DHT22;7653;48.994;9.212;2023-02-25T16:22:24;4.60;64.00
15105;DHT22;7653;48.994;9.212;2023-02-25T16:24:52;5.00;61.50
15105;DHT22;7653;48.994;9.212;2023-02-25T16:27:34;5.30;52.50
15105;DHT22;7653;48.994;9.212;2023-02-25T16:30:28;5.10;52.50
15105;DHT22;7653;48.994;9.212;2023-02-25T16:40:41;4.50;53.10
15105;DHT22;7653;48.994;9.212;2023-02-25T16:43:15;4.40;51.70
15105;DHT22;7653;48.994;9.212;2023-02-25T16:45:53;4.50;52.30
15105;DHT22;7653;48.994;9.212;2023-02-25T16:48:31;4.60;51.10
15105;DHT22;7653;48.994;9.212;2023-02-25T16:51:11;4.60;50.60
15105;DHT22;7653;48.994;9.212;2023-02-25T16:53:45;4.60;51.20
15105;DHT22;7653;48.994;9.212;2023-02-25T16:56:23;4.60;51.30
15105;DHT22;7653;48.994;9.212;2023-02-25T17:01:31;4.10;55.90
15105;DHT22;7653;48.994;9.212;2023-02-25T17:04:19;3.20;64.50
15105;DHT22;7653;48.994;9.212;2023-02-25T17:07:15;2.60;73.40
15105;DHT22;7653;48.994;9.212;2023-02-25T17:12:19;2.20;84.60
15105;DHT22;7653;48.994;9.212;2023-02-25T17:14:47;2.20;80.50
15105;DHT22;7653;48.994;9.212;2023-02-25T17:17:26;2.00;81.90
15105;DHT22;7653;48.994;9.212;2023-02-25T17:19:52;2.20;82.10
15105;DHT22;7653;48.994;9.212;2023-02-25T17:22:20;2.00;76.20
15105;DHT22;7653;48.994;9.212;2023-02-25T17:24:48;1.90;78.30
15105;DHT22;7653;48.994;9.212;2023-02-25T17:27:15;1.90;79.20
15105;DHT22;7653;48.994;9.212;2023-02-25T17:29:42;1.90;78.70
15105;DHT22;7653;48.994;9.212;2023-02-25T17:32:17;2.10;78.90
15105;DHT22;7653;48.994;9.212;2023-02-25T17:34:43;2.20;77.60
15105;DHT22;7653;48.994;9.212;2023-02-25T17:37:10;2.30;75.20
15105;DHT22;7653;48.994;9.212;2023-02-25T17:39:38;2.40;73.20
15105;DHT22;7653;48.994;9.212;2023-02-25T17:44:53;2.70;67.20
15105;DHT22;7653;48.994;9.212;2023-02-25T17:47:23;2.50;65.30
15105;DHT22;7653;48.994;9.212;2023-02-25T17:49:50;2.50;67.50
15105;DHT22;7653;48.994;9.212;2023-02-25T17:52:28;2.50;67.70
15105;DHT22;7653;48.994;9.212;2023-02-25T17:55:01;2.60;65.20
15105;DHT22;7653;48.994;9.212;2023-02-25T17:57:30;2.40;63.80
15105;DHT22;7653;48.994;9.212;2023-02-25T18:02:36;2.50;65.60
15105;DHT22;7653;48.994;9.212;2023-02-25T18:07:39;2.60;66.50
15105;DHT22;7653;48.994;9.212;2023-02-25T18:12:56;2.60;64.00
15105;DHT22;7653;48.994;9.212;2023-02-25T18:15:28;2.50;64.10
15105;DHT22;7653;48.994;9.212;2023-02-25T18:18:06;2.50;63.90
15105;DHT22;7653;48.994;9.212;2023-02-25T18:30:38;2.30;65.80
15105;DHT22;7653;48.994;9.212;2023-02-25T18:33:04;2.40;66.60
15105;DHT22;7653;48.994;9.212;2023-02-25T18:35:30;2.40;65.50
15105;DHT22;7653;48.994;9.212;2023-02-25T18:37:57;2.40;66.20
15105;DHT22;7653;48.994;9.212;2023-02-25T18:40:33;2.40;66.90
15105;DHT22;7653;48.994;9.212;2023-02-25T18:43:03;2.50;65.30
15105;DHT22;7653;48.994;9.212;2023-02-25T18:45:30;2.50;63.90
15105;DHT22;7653;48.994;9.212;2023-02-25T18:47:56;2.40;64.40
15105;DHT22;7653;48.994;9.212;2023-02-25T18:50:24;2.30;65.50
15105;DHT22;7653;48.994;9.212;2023-02-25T18:52:53;2.20;67.50
15105;DHT22;7653;48.994;9.212;2023-02-25T18:55:25;2.20;67.50
15105;DHT22;7653;48.994;9.212;2023-02-25T18:57:51;2.30;67.40
15105;DHT22;7653;48.994;9.212;2023-02-25T19:00:19;2.20;66.80
15105;DHT22;7653;48.994;9.212;2023-02-25T19:05:15;2.20;66.60
15105;DHT22;7653;48.994;9.212;2023-02-25T19:07:42;2.20;66.10
15105;DHT22;7653;48.994;9.212;2023-02-25T19:10:10;2.20;66.20
15105;DHT22;7653;48.994;9.212;2023-02-25T19:12:36;2.10;66.40
15105;DHT22;7653;48.994;9.212;2023-02-25T19:15:04;2.10;66.70
15105;DHT22;7653;48.994;9.212;2023-02-25T19:17:31;2.10;67.10
15105;DHT22;7653;48.994;9.212;2023-02-25T19:19:57;2.10;66.80
15105;DHT22;7653;48.994;9.212;2023-02-25T19:22:23;2.00;65.80
15105;DHT22;7653;48.994;9.212;2023-02-25T19:24:49;1.90;67.40
15105;DHT22;7653;48.994;9.212;2023-02-25T19:27:27;1.90;67.50
15105;DHT22;7653;48.994;9.212;2023-02-25T19:29:55;1.90;66.50
15105;DHT22;7653;48.994;9.212;2023-02-25T19:32:21;1.90;66.70
15105;DHT22;7653;48.994;9.212;2023-02-25T19:34:48;1.90;67.30
15105;DHT22;7653;48.994;9.212;2023-02-25T19:37:15;1.90;66.70
15105;DHT22;7653;48.994;9.212;2023-02-25T19:39:41;1.80;67.10
15105;DHT22;7653;48.994;9.212;2023-02-25T19:42:08;1.80;68.00
15105;DHT22;7653;48.994;9.212;2023-02-25T19:44:35;1.90;68.40
15105;DHT22;7653;48.994;9.212;2023-02-25T19:47:01;1.80;68.50
15105;DHT22;7653;48.994;9.212;2023-02-25T19:49:27;1.70;67.40
15105;DHT22;7653;48.994;9.212;2023-02-25T19:51:54;1.80;65.40
15105;DHT22;7653;48.994;9.212;2023-02-25T19:54:20;1.90;65.30
15105;DHT22;7653;48.994;9.212;2023-02-25T19:56:47;2.00;62.70
15105;DHT22;7653;48.994;9.212;2023-02-25T19:59:13;2.10;59.60
15105;DHT22;7653;48.994;9.212;2023-02-25T20:01:39;2.00;55.30
15105;DHT22;7653;48.994;9.212;2023-02-25T20:04:06;2.10;55.50
15105;DHT22;7653;48.994;9.212;2023-02-25T20:06:32;2.20;54.30
15105;DHT22;7653;48.994;9.212;2023-02-25T20:09:02;2.10;47.00
15105;DHT22;7653;48.994;9.212;2023-02-25T20:11:28;2.20;47.30
15105;DHT22;7653;48.994;9.212;2023-02-25T20:13:54;2.10;46.90
15105;DHT22;7653;48.994;9.212;2023-02-25T20:16:20;2.10;46.60
15105;DHT22;7653;48.994;9.212;2023-02-25T20:18:49;2.20;47.00
15105;DHT22;7653;48.994;9.212;2023-02-25T20:21:15;2.20;46.60
15105;DHT22;7653;48.994;9.212;2023-02-25T20:23:42;2.20;47.10
15105;DHT22;7653;48.994;9.212;2023-02-25T20:26:10;2.20;44.80
15105;DHT22;7653;48.994;9.212;2023-02-25T20:28:43;2.20;42.60
15105;DHT22;7653;48.994;9.212;2023-02-25T20:31:15;2.20;41.30
15105;DHT22;7653;48.994;9.212;2023-02-25T20:33:42;2.20;41.70
15105;DHT22;7653;48.994;9.212;2023-02-25T20:36:23;2.20;40.10
15105;DHT22;7653;48.994;9.212;2023-02-25T20:41:22;2.10;37.30
15105;DHT22;7653;48.994;9.212;2023-02-25T20:43:48;2.10;35.90
15105;DHT22;7653;48.994;9.212;2023-02-25T20:46:22;2.10;34.90
15105;DHT22;7653;48.994;9.212;2023-02-25T20:48:48;2.10;34.20
15105;DHT22;7653;48.994;9.212;2023-02-25T20:51:14;2.10;35.00
15105;DHT22;7653;48.994;9.212;2023-02-25T20:53:40;2.10;35.00
15105;DHT22;7653;48.994;9.212;2023-02-25T20:56:09;2.10;32.60
15105;DHT22;7653;48.994;9.212;2023-02-25T20:58:35;2.10;32.50
15105;DHT22;7653;48.994;9.212;2023-02-25T21:01:01;2.00;31.80
15105;DHT22;7653;48.994;9.212;2023-02-25T21:03:27;1.90;32.60
15105;DHT22;7653;48.994;9.212;2023-02-25T21:05:52;2.00;31.50
15105;DHT22;7653;48.994;9.212;2023-02-25T21:08:18;1.90;31.70
15105;DHT22;7653;48.994;9.212;2023-02-25T21:10:44;1.90;31.70
15105;DHT22;7653;48.994;9.212;2023-02-25T21:13:09;1.80;30.50
15105;DHT22;7653;48.994;9.212;2023-02-25T21:15:35;1.80;30.30
15105;DHT22;7653;48.994;9.212;2023-02-25T21:18:01;1.80;30.00
15105;DHT22;7653;48.994;9.212;2023-02-25T21:20:27;1.80;30.70
15105;DHT22;7653;48.994;9.212;2023-02-25T21:22:53;1.70;30.10
15105;DHT22;7653;48.994;9.212;2023-02-25T21:25:18;1.80;30.40
15105;DHT22;7653;48.994;9.212;2023-02-25T21:27:44;1.80;30.10
15105;DHT22;7653;48.994;9.212;2023-02-25T21:30:10;1.70;30.30
15105;DHT22;7653;48.994;9.212;2023-02-25T21:32:36;1.70;30.40
15105;DHT22;7653;48.994;9.212;2023-02-25T21:35:01;1.70;30.20
15105;DHT22;7653;48.994;9.212;2023-02-25T21:37:28;1.80;31.00
15105;DHT22;7653;48.994;9.212;2023-02-25T21:39:54;1.90;31.40
15105;DHT22;7653;48.994;9.212;2023-02-25T21:42:20;1.80;30.90
15105;DHT22;7653;48.994;9.212;2023-02-25T21:44:46;1.70;30.40
15105;DHT22;7653;48.994;9.212;2023-02-25T21:47:11;1.70;30.50
15105;DHT22;7653;48.994;9.212;2023-02-25T21:49:37;1.70;31.40
15105;DHT22;7653;48.994;9.212;2023-02-25T21:52:05;1.80;31.50
15105;DHT22;7653;48.994;9.212;2023-02-25T21:54:31;1.80;32.20
15105;DHT22;7653;48.994;9.212;2023-02-25T21:56:57;1.80;32.40
15105;DHT22;7653;48.994;9.212;2023-02-25T21:59:22;1.90;33.20
15105;DHT22;7653;48.994;9.212;2023-02-25T22:01:48;1.90;33.40
15105;DHT22;7653;48.994;9.212;2023-02-25T22:04:14;1.90;33.20
15105;DHT22;7653;48.994;9.212;2023-02-25T22:06:39;1.80;33.10
15105;DHT22;7653;48.994;9.212;2023-02-25T22:09:07;1.80;33.60
15105;DHT22;7653;48.994;9.212;2023-02-25T22:11:35;1.70;32.80
15105;DHT22;7653;48.994;9.212;2023-02-25T22:14:02;1.60;33.60
15105;DHT22;7653;48.994;9.212;2023-02-25T22:16:29;1.50;33.10
15105;DHT22;7653;48.994;9.212;2023-02-25T22:18:56;1.50;34.20
15105;DHT22;7653;48.994;9.212;2023-02-25T22:21:24;1.60;34.60
15105;DHT22;7653;48.994;9.212;2023-02-25T22:23:52;1.60;34.60
15105;DHT22;7653;48.994;9.212;2023-02-25T22:26:20;1.50;34.20
15105;DHT22;7653;48.994;9.212;2023-02-25T22:28:46;1.40;34.40
15105;DHT22;7653;48.994;9.212;2023-02-25T22:31:14;1.40;34.40
15105;DHT22;7653;48.994;9.212;2023-02-25T22:33:41;1.30;34.30
15105;DHT22;7653;48.994;9.212;2023-02-25T22:36:07;1.30;34.30
15105;DHT22;7653;48.994;9.212;2023-02-25T22:38:36;1.30;34.30
15105;DHT22;7653;48.994;9.212;2023-02-25T22:41:02;1.30;34.30
15105;DHT22;7653;48.994;9.212;2023-02-25T22:43:28;1.20;35.90
15105;DHT22;7653;48.994;9.212;2023-02-25T22:46:28;1.20;35.80
15105;DHT22;7653;48.994;9.212;2023-02-25T22:48:54;1.20;36.20
15105;DHT22;7653;48.994;9.212;2023-02-25T22:51:31;1.20;36.20
15105;DHT22;7653;48.994;9.212;2023-02-25T22:53:58;1.20;36.90
15105;DHT22;7653;48.994;9.212;2023-02-25T22:56:24;1.10;36.80
15105;DHT22;7653;48.994;9.212;2023-02-25T22:58:50;1.20;36.80
15105;DHT22;7653;48.994;9.212;2023-02-25T23:01:19;1.10;36.70
15105;DHT22;7653;48.994;9.212;2023-02-25T23:03:46;1.10;37.20
15105;DHT22;7653;48.994;9.212;2023-02-25T23:06:13;1.10;37.00
15105;DHT22;7653;48.994;9.212;2023-02-25T23:08:39;1.00;37.20
15105;DHT22;7653;48.994;9.212;2023-02-25T23:11:14;1.00;37.50